Главная страница
METAR-TAF:

METAR-TAF

Аэропорты :

Прага, Чехия

широта: 50-06N, долгота: 014-15E, высота над уровнем моря: 365 м

Текущие метеонаблюдения

Эта сводка был подготовлена 11 минут назад, в 03:00 UTC
Ветер 2 Узел переменных направлений
Температура 16°C
Влажность 63%
Давление 1016 hPa
Видимость 10 км и более
Нет облачности ниже 1500 м, и нет кучево-дождевой облачности

METAR: LKPR 170300Z VRB02KT CAVOK 16/09 Q1016 NOSIG

Время: 05:11 (03:11 UTC)

Прогноз

Эта сводка был подготовлена 4 часа и 11 минут назад, в 23:00 UTC
Прогноз действительный с 17-го 00 UTC до 18-го 06 UTC
Ветер 2 Узел переменных направлений
Видимость 10 км и более
Нет облачности ниже 1500 м, и нет кучево-дождевой облачности
временами
С 17-го 06 UTC до 17-го 19 UTC
Ветер 6 Узел от восточно-юго-восточный

TAF: LKPR 162300Z 1700/1806 VRB02KT CAVOK TEMPO 1706/1719 12006KT

Метеонаблюдения и прогнозы для более 4000 аэропортов (сводки METAR и TAF).

Имеющиеся станции представлены на карте желтыми и красными точками.

Чтобы увидеть название станции, наведите на нее мышь.

Затем щелкните, чтобы увидеть метеонаблюдения и метеопрогнозы.

Управление картой: чтобы увеличить масштаб, щелкните зеленые кнопки с черным крестиком; чтобы уменьшить масштаб, щелкните зеленую кнопку с тире; для просмотра соседних карт щелкайте зеленые стрелки.


METAR-TAF: